Time;durP1;ratioP1;P1;durP2;ratioP2;P2;SDS_P1;SDS_P2;PMS_P1;PMS_P2;Temp;Humidity;BMP_temperature;BMP_pressure;BME280_temperature;BME280_humidity;BME280_pressure;Samples;Min_cycle;Max_cycle;Signal;HPM_P1;HPM_P2
2022/07/04 00:00:55;;;;;;;4.22;1.88;;;18.70;89.80;;;;;;5122940;27;20023;-67
2022/07/04 00:03:20;;;;;;;5.38;1.77;;;18.60;90.50;;;;;;5119239;27;20324;-67
2022/07/04 00:05:46;;;;;;;5.32;1.85;;;18.50;91.20;;;;;;5124432;27;20058;-67
2022/07/04 00:08:12;;;;;;;4.78;1.70;;;18.40;91.80;;;;;;5116444;28;20031;-67
2022/07/04 00:10:38;;;;;;;3.42;1.60;;;18.20;92.50;;;;;;5123162;27;20019;-67
2022/07/04 00:13:03;;;;;;;4.30;1.80;;;18.10;92.70;;;;;;5120911;27;20374;-68
2022/07/04 00:15:29;;;;;;;3.10;1.80;;;18.00;93.10;;;;;;5114979;27;20026;-68
2022/07/04 00:17:55;;;;;;;6.93;1.90;;;18.00;93.30;;;;;;5115417;28;20073;-67
2022/07/04 00:20:21;;;;;;;3.70;1.92;;;17.90;93.50;;;;;;5117383;27;20050;-67
2022/07/04 00:22:46;;;;;;;4.70;1.60;;;17.80;93.80;;;;;;5121994;27;20298;-68
2022/07/04 00:25:12;;;;;;;4.97;1.90;;;17.70;94.10;;;;;;5112756;27;20474;-68
2022/07/04 00:27:38;;;;;;;5.10;1.77;;;17.70;94.60;;;;;;5113601;28;20027;-68
2022/07/04 00:30:04;;;;;;;4.63;1.80;;;17.60;95.10;;;;;;5122024;27;20028;-67
2022/07/04 00:32:30;;;;;;;4.63;2.05;;;17.60;94.90;;;;;;5096837;28;20103;-68
2022/07/04 00:34:56;;;;;;;6.13;1.98;;;17.50;95.20;;;;;;5113779;27;20118;-67
2022/07/04 00:37:22;;;;;;;6.10;1.80;;;17.50;95.00;;;;;;5107938;28;20036;-67
2022/07/04 00:39:48;;;;;;;4.20;1.70;;;17.50;95.00;;;;;;5113604;27;20317;-68
2022/07/04 00:42:13;;;;;;;5.30;2.00;;;17.50;94.90;;;;;;5111662;27;20301;-67
2022/07/04 00:44:39;;;;;;;3.13;1.60;;;17.50;94.90;;;;;;5112011;27;20428;-69
2022/07/04 00:47:06;;;;;;;3.10;1.50;;;17.50;94.80;;;;;;5104224;28;20480;-67
2022/07/04 00:49:32;;;;;;;4.40;1.80;;;17.50;94.60;;;;;;5113930;27;20072;-68
2022/07/04 00:52:00;;;;;;;4.75;1.77;;;17.50;94.40;;;;;;5115037;27;20048;-67
2022/07/04 00:54:28;;;;;;;4.40;1.67;;;17.50;94.40;;;;;;5109899;27;20061;-68
2022/07/04 00:56:55;;;;;;;3.42;1.60;;;17.50;94.80;;;;;;5114747;28;20031;-67
2022/07/04 00:59:22;;;;;;;3.50;1.52;;;17.40;95.20;;;;;;5113472;28;20028;-68
2022/07/04 01:01:48;;;;;;;4.13;1.95;;;17.30;95.60;;;;;;5115912;27;20346;-68
2022/07/04 01:04:14;;;;;;;3.63;1.70;;;17.30;95.80;;;;;;5116070;27;20027;-68
2022/07/04 01:06:40;;;;;;;5.05;1.70;;;17.30;95.80;;;;;;5114811;27;20051;-68
2022/07/04 01:09:07;;;;;;;4.90;1.60;;;17.30;95.90;;;;;;5113379;27;20451;-67
2022/07/04 01:11:32;;;;;;;3.35;1.60;;;17.40;95.00;;;;;;5115863;27;20051;-67
2022/07/04 01:13:58;;;;;;;4.53;1.70;;;17.60;95.10;;;;;;5112927;27;20066;-68
2022/07/04 01:16:25;;;;;;;4.80;2.00;;;17.60;94.90;;;;;;5104555;28;20042;-68
2022/07/04 01:19:00;;;;;;;3.53;1.60;;;17.60;95.20;;;;;;5104680;28;20114;-67
2022/07/04 01:21:26;;;;;;;3.90;1.77;;;17.60;95.00;;;;;;5112323;27;20040;-67
2022/07/04 01:23:52;;;;;;;7.70;1.90;;;17.60;95.10;;;;;;5112047;28;20079;-67
2022/07/04 01:26:17;;;;;;;3.75;1.67;;;17.50;95.50;;;;;;5114894;28;20368;-66
2022/07/04 01:28:44;;;;;;;2.85;1.63;;;17.40;95.90;;;;;;5110976;27;20061;-67
2022/07/04 01:31:12;;;;;;;7.03;2.10;;;17.30;96.10;;;;;;5113821;27;21357;-67
2022/07/04 01:33:38;;;;;;;6.60;1.95;;;17.30;96.10;;;;;;5124601;27;20062;-67
2022/07/04 01:36:07;;;;;;;5.97;1.85;;;17.30;96.30;;;;;;5109263;27;20035;-67
2022/07/04 01:38:35;;;;;;;5.60;1.80;;;17.20;96.50;;;;;;5119099;28;20425;-67
2022/07/04 01:41:01;;;;;;;4.00;1.80;;;17.20;96.60;;;;;;5114002;27;20027;-67
2022/07/04 01:43:30;;;;;;;4.80;2.15;;;17.20;96.70;;;;;;5113174;28;20533;-67
2022/07/04 01:45:58;;;;;;;4.45;1.90;;;17.20;96.70;;;;;;5112653;28;20024;-67
2022/07/04 01:48:24;;;;;;;4.15;1.80;;;17.20;96.80;;;;;;5111513;28;20031;-68
2022/07/04 01:50:50;;;;;;;4.85;1.80;;;17.20;96.70;;;;;;5114370;28;20028;-67
2022/07/04 01:53:15;;;;;;;5.57;1.90;;;17.30;96.50;;;;;;5112814;28;20367;-67
2022/07/04 01:55:41;;;;;;;4.20;2.05;;;17.30;96.30;;;;;;5102495;28;20030;-67
2022/07/04 01:58:06;;;;;;;5.20;1.92;;;17.40;95.70;;;;;;5112144;27;20024;-67
2022/07/04 02:03:17;;;;;;;;;;;17.40;96.10;;;;;;5114314;27;20027;-67
2022/07/04 02:05:42;;;;;;;4.25;2.00;;;17.40;96.50;;;;;;5110323;27;19916;-67
2022/07/04 02:08:10;;;;;;;4.15;1.77;;;17.50;96.50;;;;;;5110775;28;20055;-67
2022/07/04 02:10:35;;;;;;;4.47;2.22;;;17.50;96.60;;;;;;5120154;27;20036;-67
2022/07/04 02:13:04;;;;;;;3.25;1.92;;;17.50;96.60;;;;;;5109217;27;20042;-67
2022/07/04 02:15:35;;;;;;;3.88;1.80;;;17.50;96.60;;;;;;5115233;27;20027;-67
2022/07/04 02:18:02;;;;;;;3.95;1.73;;;17.50;96.60;;;;;;5112667;27;20472;-67
2022/07/04 02:20:28;;;;;;;4.55;1.83;;;17.50;96.70;;;;;;5113271;27;20031;-67
2022/07/04 02:22:53;;;;;;;4.72;1.88;;;17.60;96.70;;;;;;5119090;27;20042;-67
2022/07/04 02:25:19;;;;;;;3.53;1.80;;;17.50;96.80;;;;;;5117747;27;20041;-67
2022/07/04 02:27:45;;;;;;;5.45;1.80;;;17.40;96.70;;;;;;5114801;27;20032;-67
2022/07/04 02:30:13;;;;;;;3.58;1.92;;;17.40;96.90;;;;;;5116144;27;20080;-67
2022/07/04 02:32:39;;;;;;;5.57;2.17;;;17.40;97.00;;;;;;5127517;27;20055;-66
2022/07/04 02:35:06;;;;;;;5.68;1.98;;;17.40;96.90;;;;;;5117930;27;20363;-66
2022/07/04 02:37:32;;;;;;;5.05;2.30;;;17.40;96.90;;;;;;5122874;27;20102;-67
2022/07/04 02:39:58;;;;;;;7.47;2.08;;;17.30;96.90;;;;;;5119462;27;20126;-68
2022/07/04 02:42:30;;;;;;;5.43;1.98;;;17.20;97.10;;;;;;5111295;27;20477;-68
2022/07/04 02:44:56;;;;;;;3.70;1.70;;;17.20;97.20;;;;;;5114846;27;20043;-67
2022/07/04 02:47:21;;;;;;;4.88;2.08;;;17.10;97.20;;;;;;5117462;27;20020;-69
2022/07/04 02:49:47;;;;;;;3.63;2.10;;;17.10;97.30;;;;;;5118231;27;20378;-66
2022/07/04 02:52:13;;;;;;;5.35;2.22;;;17.10;97.50;;;;;;5120453;27;20031;-67
2022/07/04 02:54:39;;;;;;;4.55;2.10;;;17.10;97.30;;;;;;5115601;27;20427;-67
2022/07/04 02:57:10;;;;;;;4.45;2.00;;;17.10;97.30;;;;;;5122789;27;20024;-67
2022/07/04 02:59:36;;;;;;;4.30;2.10;;;17.10;97.40;;;;;;5105336;27;20034;-68
2022/07/04 03:02:01;;;;;;;3.97;1.80;;;17.10;97.40;;;;;;5105006;27;20031;-67
2022/07/04 03:04:27;;;;;;;5.68;2.30;;;17.10;97.50;;;;;;5107425;27;20022;-67
2022/07/04 03:06:53;;;;;;;4.60;2.10;;;17.20;97.40;;;;;;5121035;27;20024;-67
2022/07/04 03:09:18;;;;;;;5.90;2.30;;;17.20;97.10;;;;;;5112759;28;20027;-67
2022/07/04 03:11:44;;;;;;;6.75;2.42;;;17.30;96.50;;;;;;5110364;27;20067;-67
2022/07/04 03:14:10;;;;;;;3.92;2.00;;;17.30;96.60;;;;;;5112399;28;20103;-68
2022/07/04 03:16:36;;;;;;;5.25;1.80;;;17.30;96.80;;;;;;5108181;27;20515;-68
2022/07/04 03:19:02;;;;;;;5.78;1.70;;;17.20;97.20;;;;;;5114049;27;20118;-66
2022/07/04 03:21:28;;;;;;;5.25;1.80;;;17.20;97.30;;;;;;5110922;27;20098;-67
2022/07/04 03:24:00;;;;;;;4.88;2.20;;;17.10;97.30;;;;;;5119010;27;20035;-66
2022/07/04 03:26:29;;;;;;;4.53;2.30;;;17.10;97.60;;;;;;5114598;27;20138;-68
2022/07/04 03:28:58;;;;;;;4.45;2.40;;;17.00;97.30;;;;;;5119029;27;20031;-67
2022/07/04 03:31:24;;;;;;;6.03;2.60;;;17.10;97.30;;;;;;5109058;27;20058;-68
2022/07/04 03:33:50;;;;;;;4.55;2.35;;;17.10;97.30;;;;;;5109592;27;20040;-68
2022/07/04 03:36:16;;;;;;;3.95;2.30;;;17.00;97.50;;;;;;5112977;27;20072;-67
2022/07/04 03:38:41;;;;;;;6.75;2.30;;;17.00;97.20;;;;;;5117159;27;20031;-68
2022/07/04 03:41:07;;;;;;;4.03;2.30;;;17.00;97.60;;;;;;5112917;27;20420;-66
2022/07/04 03:43:33;;;;;;;4.93;2.30;;;16.90;97.40;;;;;;5115594;27;20725;-67
2022/07/04 03:45:58;;;;;;;6.22;2.10;;;16.90;97.40;;;;;;5112654;28;20331;-66
2022/07/04 03:48:24;;;;;;;5.15;2.67;;;16.90;97.20;;;;;;5112651;27;20023;-67
2022/07/04 03:50:50;;;;;;;5.53;2.30;;;16.90;97.10;;;;;;5113740;27;20309;-67
2022/07/04 03:53:16;;;;;;;5.55;2.22;;;16.80;97.10;;;;;;5115663;27;20424;-67
2022/07/04 03:55:42;;;;;;;5.40;2.50;;;16.80;97.30;;;;;;5115242;27;20013;-67
2022/07/04 03:58:07;;;;;;;4.30;2.30;;;16.80;97.40;;;;;;5107436;27;20504;-67
2022/07/04 04:00:33;;;;;;;8.20;2.40;;;16.80;97.40;;;;;;5109477;27;20027;-67
2022/07/04 04:02:59;;;;;;;6.57;2.22;;;16.80;97.40;;;;;;5119723;27;20062;-67
2022/07/04 04:05:30;;;;;;;5.85;2.83;;;16.80;97.40;;;;;;5109497;27;20063;-67
2022/07/04 04:08:00;;;;;;;5.65;2.30;;;16.80;97.20;;;;;;5110356;27;20035;-67
2022/07/04 04:10:28;;;;;;;8.35;2.30;;;16.70;97.50;;;;;;5108220;27;20134;-66
2022/07/04 04:12:54;;;;;;;5.25;2.22;;;16.70;97.60;;;;;;5112251;27;20441;-66
2022/07/04 04:15:20;;;;;;;6.93;2.45;;;16.60;97.60;;;;;;5110539;27;20406;-67
2022/07/04 04:17:46;;;;;;;5.43;2.85;;;16.50;97.60;;;;;;5110600;27;20031;-67
2022/07/04 04:20:11;;;;;;;4.63;2.45;;;16.50;97.70;;;;;;5110262;27;20386;-67
2022/07/04 04:22:37;;;;;;;5.85;2.80;;;16.50;97.70;;;;;;5112851;27;20016;-67
2022/07/04 04:25:03;;;;;;;5.63;2.65;;;16.50;97.40;;;;;;5118703;27;20028;-67
2022/07/04 04:27:29;;;;;;;6.72;2.67;;;16.50;98.00;;;;;;5117233;27;20031;-66
2022/07/04 04:29:54;;;;;;;4.63;2.50;;;16.60;97.70;;;;;;5113000;27;20032;-66
2022/07/04 04:32:21;;;;;;;5.30;2.65;;;16.70;97.70;;;;;;5118901;27;20035;-66
2022/07/04 04:34:47;;;;;;;4.80;2.40;;;16.80;97.80;;;;;;5110154;27;20032;-67
2022/07/04 04:37:13;;;;;;;5.85;2.40;;;17.00;97.30;;;;;;5110700;27;20035;-68
2022/07/04 04:39:39;;;;;;;7.40;2.58;;;17.00;97.40;;;;;;5115505;27;20027;-67
2022/07/04 04:42:07;;;;;;;5.18;2.63;;;17.00;97.50;;;;;;5110348;27;20019;-67
2022/07/04 04:44:33;;;;;;;8.07;3.17;;;17.00;97.60;;;;;;5111346;27;20164;-67
2022/07/04 04:46:59;;;;;;;6.38;2.50;;;17.00;97.80;;;;;;5110907;27;20126;-68
2022/07/04 04:49:24;;;;;;;5.85;2.28;;;17.00;97.60;;;;;;5113386;27;20031;-67
2022/07/04 04:51:50;;;;;;;5.15;2.45;;;17.10;97.60;;;;;;5112474;27;20059;-67
2022/07/04 04:54:15;;;;;;;7.25;2.38;;;17.20;97.70;;;;;;5113048;27;20462;-67
2022/07/04 04:56:41;;;;;;;7.50;2.63;;;17.30;97.60;;;;;;5089899;27;20061;-67
2022/07/04 04:59:08;;;;;;;6.00;2.10;;;17.40;97.50;;;;;;5104522;27;20065;-67
2022/07/04 05:01:34;;;;;;;5.90;2.53;;;17.50;97.40;;;;;;5111292;27;20024;-67
2022/07/04 05:03:59;;;;;;;5.43;2.63;;;17.60;97.30;;;;;;5115314;27;20024;-68
2022/07/04 05:06:25;;;;;;;9.45;2.22;;;17.70;97.00;;;;;;5099140;28;20028;-67
2022/07/04 05:08:51;;;;;;;5.88;2.40;;;17.80;96.80;;;;;;5110909;28;20028;-67
2022/07/04 05:11:16;;;;;;;4.53;2.60;;;18.00;96.80;;;;;;5110331;27;20043;-68
2022/07/04 05:13:45;;;;;;;5.43;2.28;;;18.10;96.50;;;;;;5116982;27;20030;-67
2022/07/04 05:16:11;;;;;;;4.68;2.08;;;18.30;96.20;;;;;;5109621;27;20053;-67
2022/07/04 05:18:36;;;;;;;4.00;1.83;;;18.50;96.20;;;;;;5107945;27;20027;-67
2022/07/04 05:21:02;;;;;;;5.15;2.42;;;18.60;95.70;;;;;;5112505;27;20370;-67
2022/07/04 05:23:28;;;;;;;5.28;2.40;;;18.80;95.00;;;;;;5114153;27;20026;-66
2022/07/04 05:25:53;;;;;;;6.50;2.20;;;18.70;93.20;;;;;;5116624;27;20016;-67
2022/07/04 05:28:19;;;;;;;4.78;2.15;;;18.70;94.90;;;;;;5112624;27;20072;-66
2022/07/04 05:30:44;;;;;;;6.32;2.50;;;18.80;94.20;;;;;;5109755;28;20032;-66
2022/07/04 05:33:13;;;;;;;7.18;2.20;;;18.90;92.10;;;;;;5112866;28;20088;-67
2022/07/04 05:35:39;;;;;;;7.00;2.95;;;19.00;91.40;;;;;;5106230;28;20151;-67
2022/07/04 05:38:04;;;;;;;6.22;2.58;;;19.00;90.70;;;;;;5121908;27;20192;-68
2022/07/04 05:40:30;;;;;;;6.38;2.35;;;19.10;90.80;;;;;;5110286;28;20113;-67
2022/07/04 05:42:56;;;;;;;7.28;2.40;;;19.20;90.50;;;;;;5115288;28;20042;-68
2022/07/04 05:45:22;;;;;;;5.43;2.58;;;19.50;89.80;;;;;;5114725;27;20414;-67
2022/07/04 05:47:47;;;;;;;6.45;2.42;;;19.50;88.10;;;;;;5110454;28;20114;-67
2022/07/04 05:50:13;;;;;;;7.40;2.65;;;19.40;88.80;;;;;;5114408;28;20412;-67
2022/07/04 05:52:39;;;;;;;4.90;2.35;;;19.30;88.90;;;;;;5114596;28;20024;-68
2022/07/04 05:55:06;;;;;;;6.43;2.42;;;19.30;88.70;;;;;;5119440;28;20063;-66
2022/07/04 05:57:32;;;;;;;6.55;2.30;;;19.40;89.20;;;;;;5116006;28;20023;-68
2022/07/04 05:59:57;;;;;;;6.10;2.40;;;19.50;88.70;;;;;;5112777;28;20339;-67
2022/07/04 06:02:23;;;;;;;9.65;2.38;;;19.70;88.30;;;;;;5118071;28;20027;-67
2022/07/04 06:04:49;;;;;;;5.00;2.53;;;19.90;87.70;;;;;;5113923;28;20368;-66
2022/07/04 06:07:14;;;;;;;7.10;2.50;;;19.90;87.10;;;;;;5114926;28;20084;-67
2022/07/04 06:09:40;;;;;;;6.20;2.42;;;20.00;86.90;;;;;;5114837;28;20028;-67
2022/07/04 06:12:06;;;;;;;5.45;2.30;;;19.80;86.90;;;;;;5111656;28;20189;-67
2022/07/04 06:14:32;;;;;;;5.68;2.33;;;19.70;87.80;;;;;;5111613;28;20435;-67
2022/07/04 06:16:57;;;;;;;8.52;2.78;;;19.80;88.10;;;;;;5111248;28;20066;-68
2022/07/04 06:19:23;;;;;;;6.57;2.35;;;19.80;88.20;;;;;;5114938;28;20055;-67
2022/07/04 06:21:49;;;;;;;5.30;2.50;;;19.80;88.40;;;;;;5113058;28;20737;-67
2022/07/04 06:24:14;;;;;;;9.40;2.67;;;19.90;88.00;;;;;;5122509;28;20038;-67
2022/07/04 06:26:40;;;;;;;4.97;2.13;;;20.20;88.30;;;;;;5119884;28;20019;-68
2022/07/04 06:29:06;;;;;;;6.97;2.30;;;20.60;87.30;;;;;;5126988;28;20038;-67
2022/07/04 06:31:32;;;;;;;16.08;4.05;;;21.00;86.60;;;;;;5129815;28;20361;-68
2022/07/04 06:36:42;;;;;;;11.68;3.42;;;21.50;83.70;;;;;;5114064;28;20327;-67
2022/07/04 06:39:07;;;;;;;5.18;2.08;;;21.30;83.80;;;;;;5119200;28;20023;-67
2022/07/04 06:41:33;;;;;;;8.07;2.47;;;21.30;83.90;;;;;;5116037;28;20428;-67
2022/07/04 06:43:59;;;;;;;4.55;2.38;;;21.50;83.00;;;;;;5116429;27;20127;-67
2022/07/04 06:46:25;;;;;;;5.28;2.53;;;21.40;84.00;;;;;;5117963;27;20066;-67
2022/07/04 06:48:50;;;;;;;6.63;2.70;;;21.20;83.90;;;;;;5117739;27;20024;-67
2022/07/04 06:51:16;;;;;;;5.15;2.33;;;20.90;83.50;;;;;;5124058;27;20046;-67
2022/07/04 06:53:42;;;;;;;6.80;3.00;;;20.70;84.60;;;;;;5116903;27;20417;-66
2022/07/04 06:56:08;;;;;;;10.23;3.33;;;20.50;86.50;;;;;;5122120;27;20027;-67
2022/07/04 06:58:33;;;;;;;10.35;3.05;;;20.50;86.60;;;;;;5115310;27;20427;-67
2022/07/04 07:00:59;;;;;;;7.13;2.40;;;20.40;87.90;;;;;;5125622;27;20027;-67
2022/07/04 07:03:27;;;;;;;10.25;3.65;;;20.50;88.10;;;;;;5116289;28;20016;-67
2022/07/04 07:05:52;;;;;;;12.07;3.90;;;20.40;87.60;;;;;;5119382;27;20023;-67
2022/07/04 07:08:18;;;;;;;6.07;2.60;;;20.20;88.90;;;;;;5115303;28;20443;-67
2022/07/04 07:10:44;;;;;;;7.15;2.30;;;20.30;88.50;;;;;;5118909;27;20165;-67
2022/07/04 07:13:10;;;;;;;6.75;2.08;;;20.40;88.50;;;;;;5119329;27;20030;-67
2022/07/04 07:15:36;;;;;;;5.80;2.20;;;20.60;87.80;;;;;;5129971;27;20048;-67
2022/07/04 07:18:02;;;;;;;8.10;2.22;;;21.00;86.30;;;;;;5121971;27;20035;-68
2022/07/04 07:20:28;;;;;;;7.10;2.00;;;21.00;86.00;;;;;;5114141;28;20038;-67
2022/07/04 07:22:54;;;;;;;4.78;2.22;;;21.20;87.20;;;;;;5118496;27;20379;-68
2022/07/04 07:25:20;;;;;;;5.13;2.10;;;21.50;84.30;;;;;;5118657;28;20027;-67
2022/07/04 07:27:45;;;;;;;5.88;2.40;;;21.90;83.90;;;;;;5117653;27;20055;-67
2022/07/04 07:30:11;;;;;;;6.65;2.00;;;22.20;82.60;;;;;;5119881;27;20047;-67
2022/07/04 07:32:37;;;;;;;9.68;2.65;;;22.10;83.40;;;;;;5117697;27;20030;-67
2022/07/04 07:35:03;;;;;;;6.65;2.08;;;22.40;83.80;;;;;;5119229;27;20035;-67
2022/07/04 07:37:29;;;;;;;7.80;2.40;;;22.60;82.20;;;;;;5123233;27;20094;-67
2022/07/04 07:39:57;;;;;;;5.93;2.20;;;22.30;82.50;;;;;;5119679;27;20374;-66
2022/07/04 07:42:25;;;;;;;5.30;2.00;;;22.10;83.90;;;;;;5120072;27;20062;-67
2022/07/04 07:44:51;;;;;;;6.35;2.20;;;21.80;84.20;;;;;;5135284;27;20071;-68
2022/07/04 07:47:17;;;;;;;12.27;3.35;;;21.80;84.20;;;;;;5124987;27;20042;-67
2022/07/04 07:49:44;;;;;;;6.60;2.65;;;21.90;84.30;;;;;;5131418;27;20023;-67
2022/07/04 07:52:09;;;;;;;8.73;2.10;;;22.20;83.80;;;;;;5114014;27;20111;-67
2022/07/04 07:54:35;;;;;;;9.35;2.33;;;22.40;82.70;;;;;;5117732;28;20063;-67
2022/07/04 07:57:01;;;;;;;4.93;2.10;;;22.20;83.10;;;;;;5117170;28;20027;-67
2022/07/04 07:59:26;;;;;;;5.93;2.00;;;22.20;82.90;;;;;;5114428;28;20047;-67
2022/07/04 08:01:52;;;;;;;4.90;1.83;;;22.40;83.00;;;;;;5112562;28;20073;-67
2022/07/04 08:04:51;;;;;;;5.13;2.00;;;22.70;81.90;;;;;;5115998;27;20091;-67
2022/07/04 08:07:14;;;;;;;9.32;2.55;;;23.10;80.70;;;;;;5112796;28;20428;-67
2022/07/04 08:09:40;;;;;;;6.03;2.33;;;23.50;80.50;;;;;;5117049;28;20031;-68
2022/07/04 08:12:07;;;;;;;6.15;2.83;;;23.60;79.50;;;;;;5116574;28;20023;-68
2022/07/04 08:14:34;;;;;;;5.38;2.45;;;23.60;80.00;;;;;;5115844;27;20031;-67
2022/07/04 08:17:00;;;;;;;4.85;1.90;;;23.30;80.50;;;;;;5123261;27;20027;-66
2022/07/04 08:19:26;;;;;;;7.22;2.20;;;23.30;82.00;;;;;;5116644;28;20034;-66
2022/07/04 08:21:53;;;;;;;7.40;2.80;;;23.30;81.50;;;;;;5116564;28;20030;-66
2022/07/04 08:24:18;;;;;;;9.07;2.55;;;23.90;80.70;;;;;;5117687;28;20085;-66
2022/07/04 08:26:45;;;;;;;6.93;2.72;;;23.90;79.80;;;;;;5116397;28;20104;-66
2022/07/04 08:29:11;;;;;;;7.97;2.55;;;23.60;81.00;;;;;;5117602;28;20039;-68
2022/07/04 08:31:36;;;;;;;7.05;2.25;;;23.30;82.00;;;;;;5115718;27;20019;-67
2022/07/04 08:34:02;;;;;;;8.00;2.80;;;23.00;82.00;;;;;;5124923;27;20031;-68
2022/07/04 08:36:28;;;;;;;5.60;2.50;;;22.60;82.30;;;;;;5116140;28;20026;-67
2022/07/04 08:38:53;;;;;;;5.82;2.35;;;22.30;83.90;;;;;;5117469;28;20028;-68
2022/07/04 08:41:19;;;;;;;10.45;3.55;;;22.60;83.10;;;;;;5117357;28;20099;-68
2022/07/04 08:43:47;;;;;;;6.97;2.60;;;22.40;83.20;;;;;;5117207;28;20429;-67
2022/07/04 08:46:16;;;;;;;10.75;2.47;;;22.00;84.30;;;;;;5117367;28;20031;-67
2022/07/04 08:48:49;;;;;;;8.43;2.88;;;22.00;84.50;;;;;;5116457;27;20023;-67
2022/07/04 08:51:23;;;;;;;11.00;2.60;;;21.80;84.60;;;;;;5116151;28;20020;-67
2022/07/04 08:53:52;;;;;;;6.88;2.42;;;21.80;84.90;;;;;;5117331;28;20110;-67
2022/07/04 08:59:04;;;;;;;5.80;2.15;;;21.90;85.00;;;;;;5136944;27;20030;-68
2022/07/04 09:01:30;;;;;;;6.05;2.35;;;22.30;84.80;;;;;;5116207;28;20309;-67
2022/07/04 09:03:56;;;;;;;4.75;2.53;;;22.80;83.40;;;;;;5119348;27;20084;-67
2022/07/04 09:06:24;;;;;;;7.95;2.40;;;23.00;82.80;;;;;;5135698;27;20027;-67
2022/07/04 09:08:51;;;;;;;7.13;2.38;;;23.00;82.40;;;;;;5137411;27;20019;-68
2022/07/04 09:11:18;;;;;;;7.18;2.17;;;23.30;82.60;;;;;;5137304;27;20055;-67
2022/07/04 09:13:43;;;;;;;8.32;2.50;;;23.40;81.70;;;;;;5137361;27;20052;-67
2022/07/04 09:16:09;;;;;;;6.28;2.45;;;23.30;82.50;;;;;;5117390;27;20023;-68
2022/07/04 09:18:36;;;;;;;8.93;2.35;;;23.00;82.10;;;;;;5116758;28;20019;-67
2022/07/04 09:21:07;;;;;;;11.10;3.38;;;22.60;83.30;;;;;;5115630;28;20020;-67
2022/07/04 09:23:35;;;;;;;5.78;2.58;;;22.40;84.20;;;;;;5116608;28;20020;-67
2022/07/04 09:26:16;;;;;;;7.47;2.88;;;22.40;84.60;;;;;;5116604;28;20028;-67
2022/07/04 09:28:44;;;;;;;8.43;2.83;;;22.50;84.40;;;;;;5115849;28;20015;-67
2022/07/04 09:31:29;;;;;;;10.07;3.10;;;22.90;85.20;;;;;;5096107;28;20409;-67
2022/07/04 09:33:57;;;;;;;9.02;2.70;;;23.50;82.20;;;;;;5099389;27;20027;-67
2022/07/04 09:36:31;;;;;;;16.98;4.43;;;23.80;81.90;;;;;;5135833;27;20102;-67
2022/07/04 09:39:18;;;;;;;;;;;24.10;80.50;;;;;;5137264;27;20054;-68
2022/07/04 09:41:56;;;;;;;6.25;2.83;;;24.40;79.00;;;;;;5136914;27;19907;-67
2022/07/04 09:44:45;;;;;;;11.27;3.92;;;24.40;79.20;;;;;;5126718;27;20043;-67
2022/07/04 09:47:24;;;;;;;13.50;3.90;;;24.10;79.90;;;;;;5086868;28;20036;-67
2022/07/04 09:50:10;;;;;;;9.95;3.10;;;24.60;79.90;;;;;;5094738;28;20100;-68
2022/07/04 09:52:54;;;;;;;9.30;2.50;;;25.40;77.30;;;;;;5095922;28;20413;-67
2022/07/04 09:55:29;;;;;;;13.52;3.78;;;26.40;75.40;;;;;;5095902;28;20039;-67
2022/07/04 09:58:02;;;;;;;12.18;3.78;;;27.00;73.90;;;;;;5095873;28;20044;-67
2022/07/04 10:00:29;;;;;;;;;;;27.10;72.70;;;;;;5102056;28;20424;-67
2022/07/04 10:02:57;;;;;;;6.50;2.20;;;27.10;72.60;;;;;;5115602;28;19915;-67
2022/07/04 10:05:26;;;;;;;7.15;3.40;;;26.90;72.90;;;;;;5128704;28;20304;-67
2022/07/04 10:07:54;;;;;;;6.38;2.30;;;27.30;72.80;;;;;;5136653;28;20019;-68
2022/07/04 10:10:34;;;;;;;11.82;2.60;;;27.10;71.10;;;;;;5132255;28;20036;-67
2022/07/04 10:13:10;;;;;;;10.00;2.60;;;26.50;72.10;;;;;;5136786;28;20484;-68
2022/07/04 10:15:38;;;;;;;5.28;2.28;;;26.50;73.60;;;;;;5122289;28;20027;-67
2022/07/04 10:18:08;;;;;;;4.75;2.28;;;26.90;70.90;;;;;;5117348;28;20034;-67
2022/07/04 10:20:35;;;;;;;4.68;1.90;;;27.60;70.70;;;;;;5118867;28;20313;-67
2022/07/04 10:23:01;;;;;;;4.85;2.03;;;28.40;70.40;;;;;;5120033;28;20015;-68
2022/07/04 10:25:27;;;;;;;8.73;2.25;;;28.00;69.50;;;;;;5120064;28;20317;-67
2022/07/04 10:27:53;;;;;;;6.50;2.30;;;28.00;68.90;;;;;;5119994;28;20016;-67
2022/07/04 10:30:28;;;;;;;4.82;2.20;;;27.40;69.40;;;;;;5119318;28;20036;-67
2022/07/04 10:32:56;;;;;;;8.02;2.40;;;26.30;72.90;;;;;;5119946;28;20028;-68
2022/07/04 10:35:49;;;;;;;6.95;1.92;;;25.80;74.50;;;;;;5133351;27;20028;-67
2022/07/04 10:38:17;;;;;;;5.28;2.10;;;26.60;74.50;;;;;;5140040;27;20111;-67
2022/07/04 10:40:54;;;;;;;7.47;2.50;;;27.40;71.50;;;;;;5140428;27;20051;-67
2022/07/04 10:43:37;;;;;;;9.75;2.85;;;27.30;70.30;;;;;;5139976;27;20023;-67
2022/07/04 10:46:11;;;;;;;6.05;2.00;;;27.70;69.20;;;;;;5119428;28;20416;-67
2022/07/04 10:49:04;;;;;;;5.50;1.98;;;27.60;69.10;;;;;;5119641;28;20428;-67
2022/07/04 10:51:35;;;;;;;5.65;2.08;;;27.60;67.60;;;;;;5118428;28;20022;-67
2022/07/04 10:54:03;;;;;;;5.20;2.08;;;27.50;68.20;;;;;;5119433;28;20060;-68
2022/07/04 10:56:29;;;;;;;6.25;2.22;;;27.20;69.00;;;;;;5118396;28;20413;-67
2022/07/04 10:58:55;;;;;;;5.75;2.20;;;26.70;69.80;;;;;;5118590;28;20034;-68
2022/07/04 11:01:21;;;;;;;4.25;1.40;;;27.00;69.90;;;;;;5119361;28;20030;-68
2022/07/04 11:03:51;;;;;;;4.00;1.63;;;27.10;70.40;;;;;;5120631;27;20023;-67
2022/07/04 11:06:38;;;;;;;8.15;2.00;;;27.10;68.00;;;;;;5138668;27;20446;-68
2022/07/04 11:09:16;;;;;;;6.57;2.08;;;27.20;67.50;;;;;;5139838;27;20042;-67
2022/07/04 11:12:06;;;;;;;4.10;1.50;;;27.40;66.80;;;;;;5139763;27;20034;-66
2022/07/04 11:14:39;;;;;;;6.43;2.00;;;27.80;67.40;;;;;;5126236;27;20333;-66
2022/07/04 11:17:06;;;;;;;4.85;1.80;;;28.50;65.50;;;;;;5119240;28;20103;-67
2022/07/04 11:19:33;;;;;;;4.32;1.70;;;28.90;64.30;;;;;;5117817;28;20031;-67
2022/07/04 11:22:00;;;;;;;7.40;2.40;;;28.90;64.80;;;;;;5117851;28;20028;-68
2022/07/04 11:24:27;;;;;;;7.15;1.92;;;28.80;65.80;;;;;;5118985;28;20401;-68
2022/07/04 11:26:53;;;;;;;5.88;1.90;;;28.50;64.20;;;;;;5118820;27;20024;-68
2022/07/04 11:29:18;;;;;;;5.30;1.65;;;27.70;67.60;;;;;;5117213;28;20031;-69
2022/07/04 11:31:47;;;;;;;4.72;2.10;;;27.70;68.60;;;;;;5118664;28;20024;-68
2022/07/04 11:34:13;;;;;;;9.25;2.00;;;27.40;67.30;;;;;;5123465;27;20027;-67
2022/07/04 11:36:41;;;;;;;4.50;2.22;;;27.30;68.70;;;;;;5128108;27;20024;-68
2022/07/04 11:39:09;;;;;;;9.07;2.20;;;27.00;67.90;;;;;;5125991;27;20076;-67
2022/07/04 11:47:20;;;;;;;6.10;2.00;;;26.70;69.50;;;;;;5118872;28;20043;-67
2022/07/04 11:49:56;;;;;;;8.05;2.25;;;26.90;68.80;;;;;;5117212;27;20031;-67
2022/07/04 11:52:37;;;;;;;5.63;2.08;;;26.90;68.90;;;;;;5118237;28;20024;-67
2022/07/04 11:55:04;;;;;;;6.07;1.98;;;27.30;69.10;;;;;;5114693;27;20024;-67
2022/07/04 11:57:43;;;;;;;5.47;2.10;;;27.30;68.50;;;;;;5115829;27;20416;-68
2022/07/04 12:00:14;;;;;;;6.25;2.13;;;26.80;70.10;;;;;;5116443;27;20031;-67
2022/07/04 12:02:41;;;;;;;4.00;2.05;;;26.70;69.80;;;;;;5115741;27;20052;-68
2022/07/04 12:05:09;;;;;;;6.88;2.40;;;27.10;69.30;;;;;;5118782;27;20024;-67
2022/07/04 12:07:39;;;;;;;4.78;2.10;;;27.30;68.30;;;;;;5114642;27;20019;-67
2022/07/04 12:10:09;;;;;;;6.65;2.30;;;27.30;68.40;;;;;;5114160;28;20024;-67
2022/07/04 12:12:35;;;;;;;8.32;2.80;;;27.10;68.50;;;;;;5103437;27;20028;-67
2022/07/04 12:15:04;;;;;;;11.38;2.22;;;26.80;69.30;;;;;;5117946;28;20026;-67
2022/07/04 12:17:37;;;;;;;18.05;3.03;;;26.90;71.70;;;;;;5117415;27;20042;-67
2022/07/04 12:20:03;;;;;;;9.38;2.45;;;27.00;72.70;;;;;;5116700;28;20026;-68
2022/07/04 12:22:31;;;;;;;7.70;2.40;;;27.30;70.80;;;;;;5117690;27;20098;-67
2022/07/04 12:24:57;;;;;;;4.50;2.00;;;27.50;69.60;;;;;;5117680;28;20094;-68
2022/07/04 12:27:25;;;;;;;6.70;2.20;;;28.20;66.30;;;;;;5116275;27;21486;-68
2022/07/04 12:29:51;;;;;;;3.97;1.83;;;28.90;65.60;;;;;;5117516;28;20024;-67
2022/07/04 12:32:18;;;;;;;4.13;1.80;;;28.70;66.50;;;;;;5118652;27;20024;-68
2022/07/04 12:34:44;;;;;;;5.95;1.70;;;28.90;63.60;;;;;;5127965;27;20063;-68
2022/07/04 12:37:12;;;;;;;5.15;1.70;;;28.90;64.20;;;;;;5126944;27;20416;-67
2022/07/04 12:39:40;;;;;;;5.55;1.70;;;29.20;63.00;;;;;;5117432;28;20034;-67
2022/07/04 12:42:11;;;;;;;6.57;1.92;;;29.30;62.10;;;;;;5118336;27;20024;-67
2022/07/04 12:44:38;;;;;;;39.20;9.23;;;29.60;62.30;;;;;;5116996;28;20091;-68
2022/07/04 12:47:05;;;;;;;12.35;3.30;;;29.80;63.80;;;;;;5116849;28;20035;-68
2022/07/04 12:49:32;;;;;;;7.70;2.17;;;29.90;62.40;;;;;;5117238;28;20501;-67
2022/07/04 12:52:14;;;;;;;8.32;2.05;;;29.40;62.20;;;;;;5116181;27;20027;-67
2022/07/04 12:54:40;;;;;;;5.85;2.03;;;29.60;62.60;;;;;;5117322;28;20107;-68
2022/07/04 12:57:13;;;;;;;5.70;1.70;;;30.00;62.40;;;;;;5116496;27;20034;-67
2022/07/04 12:59:40;;;;;;;6.13;1.50;;;30.10;63.10;;;;;;5116999;28;20026;-68
2022/07/04 13:02:07;;;;;;;5.32;1.60;;;30.00;62.20;;;;;;5115706;27;20027;-68
2022/07/04 13:04:33;;;;;;;4.88;1.80;;;29.90;62.70;;;;;;5131853;27;20027;-68